Aérodrome :
LOGIN :

S'inscrire | Disclaimer

   EN    FR    IT 

 










Légende :    VFR   VFR Marginal   IFR   IFR Intensif   IFR Très Intensif
Visi : 
Plafond : 
>= 8 km
>= 3000ft
5 à 8 km
1000 à 3000 ft
1500m à 5 km
500 à 1000 ft
800 à 1500m
200 à 500 ft
< 800m
< 200 ft
Symboles :   Orages  Brouillard  Fortes neiges  Fortes précipitations  Vent > 20 kt
SIGMETs :   Divers  Orages  Givrage  Turbulence  Onde Orograph.  Cendres Volcan.






- Altitude de l'aérodrome : 1197 ft
- Code IATA : SPM


ETAD - Spangdahlem Ab

DERNIER METAR :
  • 051756Z AUTO 15003KT 9999 CLR 26/06 A3003 RMK AO2 SLP148 T02590060 10278 20252 53001

METARs EXPIRÉS :
  • 051656Z AUTO 00000KT 9999 CLR 27/06 A3003 RMK AO2 SLP149 T02660061
  • 051556Z AUTO 20004KT 9999 CLR 27/06 A3003 RMK AO2 SLP149 T02730061 $

TAF TAF ETAD
Valide du 05 à 12h jusqu'au 06 à 18h UTC


051200Z 0512/0618 20008KT 9999 FEW060 QNH3004INS
BECMG 0517/0518 18005KT 9999 FEW070 QNH3007INS
BECMG 0521/0522 16004KT 9999 SKC QNH3012INS
BECMG 0606/0607 VRB06KT 9999 FEW060 QNH3015INS TX26/0514Z TN09/0604Z



MET'MAP, la Météo Aéronautique d'un coup d'oeil ! - Copyright ORBIFLY Décembre 2007 - Disclaimer

ORBIFLY MET'MAP TEAM :

Programmation & Développement : Alexandra Zaïnal
Sur une idée originale de : Baudouin d'Aumeries
Assistance à la programmation : Marc-Olivier Méhu
Soutien technique & logistique : Manuel Goepfert

Contact : metmap@orbifly.com




SOURCES & CREDITS :

   NOAA